sensor_id;sensor_type;location;lat;lon;timestamp;temperature;humidity
33825;DHT22;20127;48.962;8.342;2023-06-19T00:01:06;22.20;74.00
33825;DHT22;20127;48.962;8.342;2023-06-19T00:04:08;22.20;73.90
33825;DHT22;20127;48.962;8.342;2023-06-19T00:07:10;22.10;73.70
33825;DHT22;20127;48.962;8.342;2023-06-19T00:10:13;22.20;73.80
33825;DHT22;20127;48.962;8.342;2023-06-19T00:13:15;22.20;73.90
33825;DHT22;20127;48.962;8.342;2023-06-19T00:16:17;22.20;74.00
33825;DHT22;20127;48.962;8.342;2023-06-19T00:19:19;22.30;74.10
33825;DHT22;20127;48.962;8.342;2023-06-19T00:22:21;22.30;74.30
33825;DHT22;20127;48.962;8.342;2023-06-19T00:25:24;22.30;74.60
33825;DHT22;20127;48.962;8.342;2023-06-19T00:28:26;22.40;74.60
33825;DHT22;20127;48.962;8.342;2023-06-19T00:31:27;22.50;74.50
33825;DHT22;20127;48.962;8.342;2023-06-19T00:34:30;22.50;74.50
33825;DHT22;20127;48.962;8.342;2023-06-19T00:37:32;22.60;74.60
33825;DHT22;20127;48.962;8.342;2023-06-19T00:40:35;22.60;74.70
33825;DHT22;20127;48.962;8.342;2023-06-19T00:43:37;22.60;74.80
33825;DHT22;20127;48.962;8.342;2023-06-19T00:46:40;22.60;75.10
33825;DHT22;20127;48.962;8.342;2023-06-19T00:49:42;22.50;75.20
33825;DHT22;20127;48.962;8.342;2023-06-19T00:52:44;22.50;75.50
33825;DHT22;20127;48.962;8.342;2023-06-19T00:55:48;22.50;75.60
33825;DHT22;20127;48.962;8.342;2023-06-19T00:58:52;22.50;76.00
33825;DHT22;20127;48.962;8.342;2023-06-19T01:01:55;22.50;76.10
33825;DHT22;20127;48.962;8.342;2023-06-19T01:04:57;22.50;76.70
33825;DHT22;20127;48.962;8.342;2023-06-19T01:08:02;22.40;77.60
33825;DHT22;20127;48.962;8.342;2023-06-19T01:11:07;22.30;79.00
33825;DHT22;20127;48.962;8.342;2023-06-19T01:14:15;22.20;79.70
33825;DHT22;20127;48.962;8.342;2023-06-19T01:17:19;22.00;82.20
33825;DHT22;20127;48.962;8.342;2023-06-19T01:20:21;21.70;84.60
33825;DHT22;20127;48.962;8.342;2023-06-19T01:23:24;21.30;88.00
33825;DHT22;20127;48.962;8.342;2023-06-19T01:26:26;21.00;90.70
33825;DHT22;20127;48.962;8.342;2023-06-19T01:29:28;20.70;92.20
33825;DHT22;20127;48.962;8.342;2023-06-19T01:32:34;20.40;93.70
33825;DHT22;20127;48.962;8.342;2023-06-19T01:35:42;20.20;94.60
33825;DHT22;20127;48.962;8.342;2023-06-19T01:38:47;20.00;95.70
33825;DHT22;20127;48.962;8.342;2023-06-19T01:41:50;19.90;96.50
33825;DHT22;20127;48.962;8.342;2023-06-19T01:44:53;19.60;97.10
33825;DHT22;20127;48.962;8.342;2023-06-19T01:47:55;19.50;97.80
33825;DHT22;20127;48.962;8.342;2023-06-19T01:50:57;19.30;98.50
33825;DHT22;20127;48.962;8.342;2023-06-19T01:54:00;19.20;99.30
33825;DHT22;20127;48.962;8.342;2023-06-19T01:57:02;19.20;99.90
33825;DHT22;20127;48.962;8.342;2023-06-19T02:00:06;19.20;99.90
33825;DHT22;20127;48.962;8.342;2023-06-19T02:03:10;19.10;99.90
33825;DHT22;20127;48.962;8.342;2023-06-19T02:06:12;19.10;99.90
33825;DHT22;20127;48.962;8.342;2023-06-19T02:09:15;19.10;99.90
33825;DHT22;20127;48.962;8.342;2023-06-19T02:12:16;19.00;99.90
33825;DHT22;20127;48.962;8.342;2023-06-19T02:15:18;19.10;99.90
33825;DHT22;20127;48.962;8.342;2023-06-19T02:18:20;19.10;99.90
33825;DHT22;20127;48.962;8.342;2023-06-19T02:21:22;19.00;99.90
33825;DHT22;20127;48.962;8.342;2023-06-19T02:24:25;19.00;99.90
33825;DHT22;20127;48.962;8.342;2023-06-19T02:27:26;18.90;99.90
33825;DHT22;20127;48.962;8.342;2023-06-19T02:30:28;18.90;99.90
33825;DHT22;20127;48.962;8.342;2023-06-19T02:33:30;18.90;99.90
33825;DHT22;20127;48.962;8.342;2023-06-19T02:36:32;18.90;99.90
33825;DHT22;20127;48.962;8.342;2023-06-19T02:39:37;19.00;99.90
33825;DHT22;20127;48.962;8.342;2023-06-19T02:42:38;18.90;99.90
33825;DHT22;20127;48.962;8.342;2023-06-19T02:45:40;18.90;99.90
33825;DHT22;20127;48.962;8.342;2023-06-19T02:48:42;19.00;99.90
33825;DHT22;20127;48.962;8.342;2023-06-19T02:51:43;19.00;99.90
33825;DHT22;20127;48.962;8.342;2023-06-19T02:54:46;19.00;99.90
33825;DHT22;20127;48.962;8.342;2023-06-19T02:57:48;19.10;99.90
33825;DHT22;20127;48.962;8.342;2023-06-19T03:00:50;19.10;99.90
33825;DHT22;20127;48.962;8.342;2023-06-19T03:03:51;19.10;99.90
33825;DHT22;20127;48.962;8.342;2023-06-19T03:06:53;19.10;99.90
33825;DHT22;20127;48.962;8.342;2023-06-19T03:09:56;19.10;99.90
33825;DHT22;20127;48.962;8.342;2023-06-19T03:12:58;19.10;99.90
33825;DHT22;20127;48.962;8.342;2023-06-19T03:15:59;19.20;99.90
33825;DHT22;20127;48.962;8.342;2023-06-19T03:19:01;19.20;99.90
33825;DHT22;20127;48.962;8.342;2023-06-19T03:22:04;19.20;99.90
33825;DHT22;20127;48.962;8.342;2023-06-19T03:25:08;19.20;99.90
33825;DHT22;20127;48.962;8.342;2023-06-19T03:28:10;19.20;99.90
33825;DHT22;20127;48.962;8.342;2023-06-19T03:31:11;19.20;99.90
33825;DHT22;20127;48.962;8.342;2023-06-19T03:34:13;19.20;99.90
33825;DHT22;20127;48.962;8.342;2023-06-19T03:37:15;19.20;99.90
33825;DHT22;20127;48.962;8.342;2023-06-19T03:40:18;19.10;99.90
33825;DHT22;20127;48.962;8.342;2023-06-19T03:43:20;19.20;99.90
33825;DHT22;20127;48.962;8.342;2023-06-19T03:46:21;19.20;99.90
33825;DHT22;20127;48.962;8.342;2023-06-19T03:49:23;19.20;99.90
33825;DHT22;20127;48.962;8.342;2023-06-19T03:52:25;19.20;99.90
33825;DHT22;20127;48.962;8.342;2023-06-19T03:55:28;19.30;99.90
33825;DHT22;20127;48.962;8.342;2023-06-19T03:58:29;19.30;99.90
33825;DHT22;20127;48.962;8.342;2023-06-19T04:01:31;19.40;99.90
33825;DHT22;20127;48.962;8.342;2023-06-19T04:04:33;19.40;99.90
33825;DHT22;20127;48.962;8.342;2023-06-19T04:07:34;19.50;99.90
33825;DHT22;20127;48.962;8.342;2023-06-19T04:10:38;19.50;99.90
33825;DHT22;20127;48.962;8.342;2023-06-19T04:13:40;19.50;99.90
33825;DHT22;20127;48.962;8.342;2023-06-19T04:16:41;19.60;99.90
33825;DHT22;20127;48.962;8.342;2023-06-19T04:19:43;19.60;99.90
33825;DHT22;20127;48.962;8.342;2023-06-19T04:22:45;19.60;99.90
33825;DHT22;20127;48.962;8.342;2023-06-19T04:25:50;19.70;99.90
33825;DHT22;20127;48.962;8.342;2023-06-19T04:28:52;19.70;99.90
33825;DHT22;20127;48.962;8.342;2023-06-19T04:31:54;19.80;99.90
33825;DHT22;20127;48.962;8.342;2023-06-19T04:34:56;19.90;99.90
33825;DHT22;20127;48.962;8.342;2023-06-19T04:37:57;20.20;99.90
33825;DHT22;20127;48.962;8.342;2023-06-19T04:41:02;20.40;99.90
33825;DHT22;20127;48.962;8.342;2023-06-19T04:44:04;20.70;99.90
33825;DHT22;20127;48.962;8.342;2023-06-19T04:47:06;20.70;99.90
33825;DHT22;20127;48.962;8.342;2023-06-19T04:50:08;20.70;99.90
33825;DHT22;20127;48.962;8.342;2023-06-19T04:53:10;21.00;99.90
33825;DHT22;20127;48.962;8.342;2023-06-19T04:56:13;21.30;99.90
33825;DHT22;20127;48.962;8.342;2023-06-19T04:59:15;21.80;99.90
33825;DHT22;20127;48.962;8.342;2023-06-19T05:02:18;22.20;99.90
33825;DHT22;20127;48.962;8.342;2023-06-19T05:05:20;22.70;99.90
33825;DHT22;20127;48.962;8.342;2023-06-19T05:08:22;22.70;99.90
33825;DHT22;20127;48.962;8.342;2023-06-19T05:11:25;22.60;99.90
33825;DHT22;20127;48.962;8.342;2023-06-19T05:14:26;22.40;99.90
33825;DHT22;20127;48.962;8.342;2023-06-19T05:17:28;22.30;99.90
33825;DHT22;20127;48.962;8.342;2023-06-19T05:20:30;22.60;99.90
33825;DHT22;20127;48.962;8.342;2023-06-19T05:23:31;22.70;99.90
33825;DHT22;20127;48.962;8.342;2023-06-19T05:26:34;22.80;99.90
33825;DHT22;20127;48.962;8.342;2023-06-19T05:29:36;22.90;99.90
33825;DHT22;20127;48.962;8.342;2023-06-19T05:32:38;23.10;99.90
33825;DHT22;20127;48.962;8.342;2023-06-19T05:35:39;23.90;99.90
33825;DHT22;20127;48.962;8.342;2023-06-19T05:38:41;25.00;99.40
33825;DHT22;20127;48.962;8.342;2023-06-19T05:41:44;26.00;97.30
33825;DHT22;20127;48.962;8.342;2023-06-19T05:44:47;27.00;95.50
33825;DHT22;20127;48.962;8.342;2023-06-19T05:47:48;27.90;93.30
33825;DHT22;20127;48.962;8.342;2023-06-19T05:50:50;28.50;90.60
33825;DHT22;20127;48.962;8.342;2023-06-19T05:53:52;28.70;87.50
33825;DHT22;20127;48.962;8.342;2023-06-19T05:56:55;28.80;86.80
33825;DHT22;20127;48.962;8.342;2023-06-19T05:59:56;29.10;84.00
33825;DHT22;20127;48.962;8.342;2023-06-19T06:02:58;29.30;82.80
33825;DHT22;20127;48.962;8.342;2023-06-19T06:06:01;29.30;80.50
33825;DHT22;20127;48.962;8.342;2023-06-19T06:09:04;29.40;79.30
33825;DHT22;20127;48.962;8.342;2023-06-19T06:12:08;29.30;78.00
33825;DHT22;20127;48.962;8.342;2023-06-19T06:15:10;29.10;78.00
33825;DHT22;20127;48.962;8.342;2023-06-19T06:18:11;29.30;77.20
33825;DHT22;20127;48.962;8.342;2023-06-19T06:21:13;29.30;74.50
33825;DHT22;20127;48.962;8.342;2023-06-19T06:24:15;29.40;74.40
33825;DHT22;20127;48.962;8.342;2023-06-19T06:27:18;29.60;73.30
33825;DHT22;20127;48.962;8.342;2023-06-19T06:30:19;29.90;72.80
33825;DHT22;20127;48.962;8.342;2023-06-19T06:33:21;30.50;71.60
33825;DHT22;20127;48.962;8.342;2023-06-19T06:36:23;30.70;69.20
33825;DHT22;20127;48.962;8.342;2023-06-19T06:39:25;30.90;68.00
33825;DHT22;20127;48.962;8.342;2023-06-19T06:42:28;30.70;67.50
33825;DHT22;20127;48.962;8.342;2023-06-19T06:45:30;30.40;66.20
33825;DHT22;20127;48.962;8.342;2023-06-19T06:48:32;30.20;67.10
33825;DHT22;20127;48.962;8.342;2023-06-19T06:51:33;30.70;67.30
33825;DHT22;20127;48.962;8.342;2023-06-19T06:54:35;31.50;65.80
33825;DHT22;20127;48.962;8.342;2023-06-19T06:57:38;31.50;63.30
33825;DHT22;20127;48.962;8.342;2023-06-19T07:00:40;30.90;63.30
33825;DHT22;20127;48.962;8.342;2023-06-19T07:03:42;30.00;64.30
33825;DHT22;20127;48.962;8.342;2023-06-19T07:06:43;29.20;65.40
33825;DHT22;20127;48.962;8.342;2023-06-19T07:09:45;28.20;66.60
33825;DHT22;20127;48.962;8.342;2023-06-19T07:12:48;27.30;68.70
33825;DHT22;20127;48.962;8.342;2023-06-19T07:15:51;26.70;70.20
33825;DHT22;20127;48.962;8.342;2023-06-19T07:18:53;26.20;71.60
33825;DHT22;20127;48.962;8.342;2023-06-19T07:21:55;25.80;72.80
33825;DHT22;20127;48.962;8.342;2023-06-19T07:24:57;25.60;74.20
33825;DHT22;20127;48.962;8.342;2023-06-19T07:28:00;25.30;75.30
33825;DHT22;20127;48.962;8.342;2023-06-19T07:31:02;25.10;76.60
33825;DHT22;20127;48.962;8.342;2023-06-19T07:34:03;25.00;77.50
33825;DHT22;20127;48.962;8.342;2023-06-19T07:37:05;24.90;78.60
33825;DHT22;20127;48.962;8.342;2023-06-19T07:40:08;24.90;79.50
33825;DHT22;20127;48.962;8.342;2023-06-19T07:43:11;24.90;80.10
33825;DHT22;20127;48.962;8.342;2023-06-19T07:46:13;24.80;80.90
33825;DHT22;20127;48.962;8.342;2023-06-19T07:49:15;24.80;81.50
33825;DHT22;20127;48.962;8.342;2023-06-19T07:52:17;24.70;82.50
33825;DHT22;20127;48.962;8.342;2023-06-19T07:55:19;24.70;83.60
33825;DHT22;20127;48.962;8.342;2023-06-19T07:58:22;25.00;84.10
33825;DHT22;20127;48.962;8.342;2023-06-19T08:01:23;25.30;83.80
33825;DHT22;20127;48.962;8.342;2023-06-19T08:04:25;25.90;83.60
33825;DHT22;20127;48.962;8.342;2023-06-19T08:07:27;26.40;82.30
33825;DHT22;20127;48.962;8.342;2023-06-19T08:10:28;26.80;81.30
33825;DHT22;20127;48.962;8.342;2023-06-19T08:13:31;27.30;79.60
33825;DHT22;20127;48.962;8.342;2023-06-19T08:16:33;28.10;78.60
33825;DHT22;20127;48.962;8.342;2023-06-19T08:19:35;29.00;76.10
33825;DHT22;20127;48.962;8.342;2023-06-19T08:22:39;29.90;73.00
33825;DHT22;20127;48.962;8.342;2023-06-19T08:25:40;30.20;70.90
33825;DHT22;20127;48.962;8.342;2023-06-19T08:28:43;30.60;70.30
33825;DHT22;20127;48.962;8.342;2023-06-19T08:31:45;31.00;68.30
33825;DHT22;20127;48.962;8.342;2023-06-19T08:34:47;31.30;67.30
33825;DHT22;20127;48.962;8.342;2023-06-19T08:37:49;31.80;66.20
33825;DHT22;20127;48.962;8.342;2023-06-19T08:40:50;32.40;64.70
33825;DHT22;20127;48.962;8.342;2023-06-19T08:43:54;32.90;62.90
33825;DHT22;20127;48.962;8.342;2023-06-19T08:46:57;33.10;61.30
33825;DHT22;20127;48.962;8.342;2023-06-19T08:49:59;32.90;60.50
33825;DHT22;20127;48.962;8.342;2023-06-19T08:53:01;32.70;60.50
33825;DHT22;20127;48.962;8.342;2023-06-19T08:56:03;32.30;60.40
33825;DHT22;20127;48.962;8.342;2023-06-19T08:59:11;32.20;60.70
33825;DHT22;20127;48.962;8.342;2023-06-19T09:02:13;32.10;60.80
33825;DHT22;20127;48.962;8.342;2023-06-19T09:05:16;32.20;60.50
33825;DHT22;20127;48.962;8.342;2023-06-19T09:08:18;32.10;60.60
33825;DHT22;20127;48.962;8.342;2023-06-19T09:11:20;32.10;60.60
33825;DHT22;20127;48.962;8.342;2023-06-19T09:14:31;31.90;60.70
33825;DHT22;20127;48.962;8.342;2023-06-19T09:17:33;31.80;60.80
33825;DHT22;20127;48.962;8.342;2023-06-19T09:20:38;31.70;60.80
33825;DHT22;20127;48.962;8.342;2023-06-19T09:23:42;31.40;61.00
33825;DHT22;20127;48.962;8.342;2023-06-19T09:26:44;31.30;62.40
33825;DHT22;20127;48.962;8.342;2023-06-19T09:29:48;31.50;61.80
33825;DHT22;20127;48.962;8.342;2023-06-19T09:32:51;31.70;61.70
33825;DHT22;20127;48.962;8.342;2023-06-19T09:35:54;31.80;61.80
33825;DHT22;20127;48.962;8.342;2023-06-19T09:38:57;32.10;61.40
33825;DHT22;20127;48.962;8.342;2023-06-19T09:42:02;32.10;60.70
33825;DHT22;20127;48.962;8.342;2023-06-19T09:45:07;32.00;60.90
33825;DHT22;20127;48.962;8.342;2023-06-19T09:48:12;31.90;60.60
33825;DHT22;20127;48.962;8.342;2023-06-19T09:51:18;31.80;60.50
33825;DHT22;20127;48.962;8.342;2023-06-19T09:54:20;31.60;60.80
33825;DHT22;20127;48.962;8.342;2023-06-19T09:57:23;31.60;60.70
33825;DHT22;20127;48.962;8.342;2023-06-19T10:00:26;31.70;60.50
33825;DHT22;20127;48.962;8.342;2023-06-19T10:03:32;31.70;60.50
33825;DHT22;20127;48.962;8.342;2023-06-19T10:06:42;31.70;60.10
33825;DHT22;20127;48.962;8.342;2023-06-19T10:10:02;31.60;60.30
33825;DHT22;20127;48.962;8.342;2023-06-19T10:13:13;31.40;60.70
33825;DHT22;20127;48.962;8.342;2023-06-19T10:16:23;31.20;61.00
33825;DHT22;20127;48.962;8.342;2023-06-19T10:19:25;31.10;61.50
33825;DHT22;20127;48.962;8.342;2023-06-19T10:22:30;31.00;61.80
33825;DHT22;20127;48.962;8.342;2023-06-19T10:25:33;31.10;61.80
33825;DHT22;20127;48.962;8.342;2023-06-19T10:28:35;31.30;61.80
33825;DHT22;20127;48.962;8.342;2023-06-19T10:31:38;31.60;61.60
33825;DHT22;20127;48.962;8.342;2023-06-19T10:34:45;32.10;60.70
33825;DHT22;20127;48.962;8.342;2023-06-19T10:37:47;32.30;60.00
33825;DHT22;20127;48.962;8.342;2023-06-19T10:40:49;32.50;59.80
33825;DHT22;20127;48.962;8.342;2023-06-19T10:43:55;32.70;59.30
33825;DHT22;20127;48.962;8.342;2023-06-19T10:46:59;32.90;58.50
33825;DHT22;20127;48.962;8.342;2023-06-19T10:50:01;33.10;57.90
33825;DHT22;20127;48.962;8.342;2023-06-19T10:53:03;33.10;57.60
33825;DHT22;20127;48.962;8.342;2023-06-19T10:56:05;33.30;57.60
33825;DHT22;20127;48.962;8.342;2023-06-19T10:59:08;33.50;57.00
33825;DHT22;20127;48.962;8.342;2023-06-19T11:02:11;33.60;57.00
33825;DHT22;20127;48.962;8.342;2023-06-19T11:05:13;33.90;56.70
33825;DHT22;20127;48.962;8.342;2023-06-19T11:08:18;34.10;56.00
33825;DHT22;20127;48.962;8.342;2023-06-19T11:11:20;34.20;55.70
33825;DHT22;20127;48.962;8.342;2023-06-19T11:14:21;34.40;55.00
33825;DHT22;20127;48.962;8.342;2023-06-19T11:17:24;34.30;54.60
33825;DHT22;20127;48.962;8.342;2023-06-19T11:20:26;34.20;55.40
33825;DHT22;20127;48.962;8.342;2023-06-19T11:23:30;33.90;55.20
33825;DHT22;20127;48.962;8.342;2023-06-19T11:26:35;34.00;55.30
33825;DHT22;20127;48.962;8.342;2023-06-19T11:29:38;34.20;54.90
33825;DHT22;20127;48.962;8.342;2023-06-19T11:32:43;34.20;54.50
33825;DHT22;20127;48.962;8.342;2023-06-19T11:35:50;34.00;54.30
33825;DHT22;20127;48.962;8.342;2023-06-19T11:38:52;33.80;54.40
33825;DHT22;20127;48.962;8.342;2023-06-19T11:41:54;33.50;54.70
33825;DHT22;20127;48.962;8.342;2023-06-19T11:44:56;33.30;55.00
33825;DHT22;20127;48.962;8.342;2023-06-19T11:48:05;33.50;55.20
33825;DHT22;20127;48.962;8.342;2023-06-19T11:51:07;33.90;54.70
33825;DHT22;20127;48.962;8.342;2023-06-19T11:54:11;34.40;54.30
33825;DHT22;20127;48.962;8.342;2023-06-19T11:57:13;34.90;53.60
33825;DHT22;20127;48.962;8.342;2023-06-19T12:00:16;35.20;53.20
33825;DHT22;20127;48.962;8.342;2023-06-19T12:03:19;35.50;52.80
33825;DHT22;20127;48.962;8.342;2023-06-19T12:06:21;35.90;52.00
33825;DHT22;20127;48.962;8.342;2023-06-19T12:09:26;36.00;51.30
33825;DHT22;20127;48.962;8.342;2023-06-19T12:12:28;36.10;51.10
33825;DHT22;20127;48.962;8.342;2023-06-19T12:15:30;36.10;50.90
33825;DHT22;20127;48.962;8.342;2023-06-19T12:18:33;36.20;50.70
33825;DHT22;20127;48.962;8.342;2023-06-19T12:21:35;36.20;50.50
33825;DHT22;20127;48.962;8.342;2023-06-19T12:24:36;36.20;50.30
33825;DHT22;20127;48.962;8.342;2023-06-19T12:27:38;36.00;50.20
33825;DHT22;20127;48.962;8.342;2023-06-19T12:30:40;35.90;50.30
33825;DHT22;20127;48.962;8.342;2023-06-19T12:33:43;35.70;50.60
33825;DHT22;20127;48.962;8.342;2023-06-19T12:36:45;35.60;50.70
33825;DHT22;20127;48.962;8.342;2023-06-19T12:39:47;35.80;50.50
33825;DHT22;20127;48.962;8.342;2023-06-19T12:42:49;35.80;50.20
33825;DHT22;20127;48.962;8.342;2023-06-19T12:45:51;35.80;49.80
33825;DHT22;20127;48.962;8.342;2023-06-19T12:48:54;35.50;50.80
33825;DHT22;20127;48.962;8.342;2023-06-19T12:51:55;35.40;50.40
33825;DHT22;20127;48.962;8.342;2023-06-19T12:54:57;35.50;50.10
33825;DHT22;20127;48.962;8.342;2023-06-19T12:58:00;35.50;50.50
33825;DHT22;20127;48.962;8.342;2023-06-19T13:01:01;35.40;49.80
33825;DHT22;20127;48.962;8.342;2023-06-19T13:04:05;35.20;50.00
33825;DHT22;20127;48.962;8.342;2023-06-19T13:07:06;35.00;50.10
33825;DHT22;20127;48.962;8.342;2023-06-19T13:10:09;35.10;49.90
33825;DHT22;20127;48.962;8.342;2023-06-19T13:13:12;35.20;49.70
33825;DHT22;20127;48.962;8.342;2023-06-19T13:16:14;35.50;49.30
33825;DHT22;20127;48.962;8.342;2023-06-19T13:19:17;35.80;48.60
33825;DHT22;20127;48.962;8.342;2023-06-19T13:22:19;36.00;47.80
33825;DHT22;20127;48.962;8.342;2023-06-19T13:25:21;35.90;47.80
33825;DHT22;20127;48.962;8.342;2023-06-19T13:28:22;35.70;48.00
33825;DHT22;20127;48.962;8.342;2023-06-19T13:31:24;35.50;48.10
33825;DHT22;20127;48.962;8.342;2023-06-19T13:34:27;35.20;49.00
33825;DHT22;20127;48.962;8.342;2023-06-19T13:37:29;35.00;48.90
33825;DHT22;20127;48.962;8.342;2023-06-19T13:40:31;34.80;49.30
33825;DHT22;20127;48.962;8.342;2023-06-19T13:43:33;34.80;49.50
33825;DHT22;20127;48.962;8.342;2023-06-19T13:46:35;34.90;49.50
33825;DHT22;20127;48.962;8.342;2023-06-19T13:49:38;35.00;49.40
33825;DHT22;20127;48.962;8.342;2023-06-19T13:52:39;35.20;48.90
33825;DHT22;20127;48.962;8.342;2023-06-19T13:55:42;35.30;48.80
33825;DHT22;20127;48.962;8.342;2023-06-19T13:58:43;35.60;48.30
33825;DHT22;20127;48.962;8.342;2023-06-19T14:01:45;35.70;48.10
33825;DHT22;20127;48.962;8.342;2023-06-19T14:04:48;35.60;48.30
33825;DHT22;20127;48.962;8.342;2023-06-19T14:07:50;35.70;47.90
33825;DHT22;20127;48.962;8.342;2023-06-19T14:10:52;35.90;47.70
33825;DHT22;20127;48.962;8.342;2023-06-19T14:13:54;36.00;46.80
33825;DHT22;20127;48.962;8.342;2023-06-19T14:16:56;35.90;47.10
33825;DHT22;20127;48.962;8.342;2023-06-19T14:19:59;35.80;47.10
33825;DHT22;20127;48.962;8.342;2023-06-19T14:23:01;35.70;46.70
33825;DHT22;20127;48.962;8.342;2023-06-19T14:26:03;35.50;46.30
33825;DHT22;20127;48.962;8.342;2023-06-19T14:29:04;35.40;45.70
33825;DHT22;20127;48.962;8.342;2023-06-19T14:32:07;35.20;45.60
33825;DHT22;20127;48.962;8.342;2023-06-19T14:35:10;35.00;45.70
33825;DHT22;20127;48.962;8.342;2023-06-19T14:38:13;35.10;46.50
33825;DHT22;20127;48.962;8.342;2023-06-19T14:41:14;35.30;46.60
33825;DHT22;20127;48.962;8.342;2023-06-19T14:44:16;35.40;46.70
33825;DHT22;20127;48.962;8.342;2023-06-19T14:47:18;35.60;46.80
33825;DHT22;20127;48.962;8.342;2023-06-19T14:50:21;35.70;46.60
33825;DHT22;20127;48.962;8.342;2023-06-19T14:53:23;35.80;46.60
33825;DHT22;20127;48.962;8.342;2023-06-19T14:56:24;35.70;46.70
33825;DHT22;20127;48.962;8.342;2023-06-19T14:59:26;35.70;47.00
33825;DHT22;20127;48.962;8.342;2023-06-19T15:02:28;35.50;47.60
33825;DHT22;20127;48.962;8.342;2023-06-19T15:05:32;35.20;48.00
33825;DHT22;20127;48.962;8.342;2023-06-19T15:08:34;35.00;48.50
33825;DHT22;20127;48.962;8.342;2023-06-19T15:11:38;34.90;49.80
33825;DHT22;20127;48.962;8.342;2023-06-19T15:14:40;34.60;49.20
33825;DHT22;20127;48.962;8.342;2023-06-19T15:17:42;34.50;49.40
33825;DHT22;20127;48.962;8.342;2023-06-19T15:20:45;34.10;49.50
33825;DHT22;20127;48.962;8.342;2023-06-19T15:23:47;33.80;50.00
33825;DHT22;20127;48.962;8.342;2023-06-19T15:26:49;33.60;50.50
33825;DHT22;20127;48.962;8.342;2023-06-19T15:29:51;33.30;51.00
33825;DHT22;20127;48.962;8.342;2023-06-19T15:32:53;32.90;51.60
33825;DHT22;20127;48.962;8.342;2023-06-19T15:35:56;32.70;52.40
33825;DHT22;20127;48.962;8.342;2023-06-19T15:38:58;32.50;52.80
33825;DHT22;20127;48.962;8.342;2023-06-19T15:41:59;32.50;53.10
33825;DHT22;20127;48.962;8.342;2023-06-19T15:45:01;32.40;53.20
33825;DHT22;20127;48.962;8.342;2023-06-19T15:48:03;32.20;53.20
33825;DHT22;20127;48.962;8.342;2023-06-19T15:51:06;32.10;53.60
33825;DHT22;20127;48.962;8.342;2023-06-19T15:54:08;31.80;54.10
33825;DHT22;20127;48.962;8.342;2023-06-19T15:57:10;31.70;54.70
33825;DHT22;20127;48.962;8.342;2023-06-19T16:00:13;31.80;55.10
33825;DHT22;20127;48.962;8.342;2023-06-19T16:03:15;31.90;55.30
33825;DHT22;20127;48.962;8.342;2023-06-19T16:06:18;32.10;54.90
33825;DHT22;20127;48.962;8.342;2023-06-19T16:09:20;32.40;54.60
33825;DHT22;20127;48.962;8.342;2023-06-19T16:12:22;32.40;54.40
33825;DHT22;20127;48.962;8.342;2023-06-19T16:15:23;32.40;54.30
33825;DHT22;20127;48.962;8.342;2023-06-19T16:18:28;32.60;54.10
33825;DHT22;20127;48.962;8.342;2023-06-19T16:21:31;32.50;53.80
33825;DHT22;20127;48.962;8.342;2023-06-19T16:24:33;32.60;53.60
33825;DHT22;20127;48.962;8.342;2023-06-19T16:27:35;32.50;53.60
33825;DHT22;20127;48.962;8.342;2023-06-19T16:30:36;32.70;53.50
33825;DHT22;20127;48.962;8.342;2023-06-19T16:33:38;32.90;53.30
33825;DHT22;20127;48.962;8.342;2023-06-19T16:36:41;33.10;53.10
33825;DHT22;20127;48.962;8.342;2023-06-19T16:39:43;33.20;53.40
33825;DHT22;20127;48.962;8.342;2023-06-19T16:42:44;33.20;52.50
33825;DHT22;20127;48.962;8.342;2023-06-19T16:45:46;33.20;53.00
33825;DHT22;20127;48.962;8.342;2023-06-19T16:48:48;33.00;52.40
33825;DHT22;20127;48.962;8.342;2023-06-19T16:51:51;32.80;52.70
33825;DHT22;20127;48.962;8.342;2023-06-19T16:54:52;32.60;53.00
33825;DHT22;20127;48.962;8.342;2023-06-19T16:57:54;32.40;53.40
33825;DHT22;20127;48.962;8.342;2023-06-19T17:00:56;32.20;53.80
33825;DHT22;20127;48.962;8.342;2023-06-19T17:03:58;32.00;54.00
33825;DHT22;20127;48.962;8.342;2023-06-19T17:07:01;31.80;54.30
33825;DHT22;20127;48.962;8.342;2023-06-19T17:10:02;31.70;54.50
33825;DHT22;20127;48.962;8.342;2023-06-19T17:13:04;31.70;54.80
33825;DHT22;20127;48.962;8.342;2023-06-19T17:16:06;31.60;55.00
33825;DHT22;20127;48.962;8.342;2023-06-19T17:19:08;31.40;55.20
33825;DHT22;20127;48.962;8.342;2023-06-19T17:22:11;31.30;55.50
33825;DHT22;20127;48.962;8.342;2023-06-19T17:25:12;31.30;55.70
33825;DHT22;20127;48.962;8.342;2023-06-19T17:28:14;31.20;55.60
33825;DHT22;20127;48.962;8.342;2023-06-19T17:31:16;31.10;55.60
33825;DHT22;20127;48.962;8.342;2023-06-19T17:34:18;31.00;55.60
33825;DHT22;20127;48.962;8.342;2023-06-19T17:37:21;31.00;55.90
33825;DHT22;20127;48.962;8.342;2023-06-19T17:40:23;30.90;55.70
33825;DHT22;20127;48.962;8.342;2023-06-19T17:43:25;30.80;55.70
33825;DHT22;20127;48.962;8.342;2023-06-19T17:46:27;30.60;55.90
33825;DHT22;20127;48.962;8.342;2023-06-19T17:49:29;30.50;56.20
33825;DHT22;20127;48.962;8.342;2023-06-19T17:52:32;30.40;56.50
33825;DHT22;20127;48.962;8.342;2023-06-19T17:55:34;30.30;56.70
33825;DHT22;20127;48.962;8.342;2023-06-19T17:58:35;30.20;57.20
33825;DHT22;20127;48.962;8.342;2023-06-19T18:01:37;30.20;57.60
33825;DHT22;20127;48.962;8.342;2023-06-19T18:04:39;30.20;57.80
33825;DHT22;20127;48.962;8.342;2023-06-19T18:07:42;30.10;57.90
33825;DHT22;20127;48.962;8.342;2023-06-19T18:10:43;30.00;58.20
33825;DHT22;20127;48.962;8.342;2023-06-19T18:13:45;29.80;58.30
33825;DHT22;20127;48.962;8.342;2023-06-19T18:16:47;29.60;58.90
33825;DHT22;20127;48.962;8.342;2023-06-19T18:19:49;29.40;59.50
33825;DHT22;20127;48.962;8.342;2023-06-19T18:22:52;29.20;60.00
33825;DHT22;20127;48.962;8.342;2023-06-19T18:25:54;29.10;60.40
33825;DHT22;20127;48.962;8.342;2023-06-19T18:28:55;28.90;60.80
33825;DHT22;20127;48.962;8.342;2023-06-19T18:31:57;28.80;61.30
33825;DHT22;20127;48.962;8.342;2023-06-19T18:34:59;28.70;61.70
33825;DHT22;20127;48.962;8.342;2023-06-19T18:38:02;28.60;61.90
33825;DHT22;20127;48.962;8.342;2023-06-19T18:41:03;28.50;62.40
33825;DHT22;20127;48.962;8.342;2023-06-19T18:44:05;28.40;62.80
33825;DHT22;20127;48.962;8.342;2023-06-19T18:47:07;28.30;63.20
33825;DHT22;20127;48.962;8.342;2023-06-19T18:50:10;28.20;63.50
33825;DHT22;20127;48.962;8.342;2023-06-19T18:53:15;28.20;64.10
33825;DHT22;20127;48.962;8.342;2023-06-19T18:56:17;28.10;64.70
33825;DHT22;20127;48.962;8.342;2023-06-19T18:59:19;28.00;65.20
33825;DHT22;20127;48.962;8.342;2023-06-19T19:02:21;27.90;65.70
33825;DHT22;20127;48.962;8.342;2023-06-19T19:05:23;27.80;66.20
33825;DHT22;20127;48.962;8.342;2023-06-19T19:08:26;27.70;66.80
33825;DHT22;20127;48.962;8.342;2023-06-19T19:11:28;27.60;67.20